createdAt,value
2019-03-27T09:58:59.752Z,23.98
2019-03-27T10:01:26.524Z,24.61
2019-03-27T10:03:53.441Z,23.99
2019-03-27T10:06:20.231Z,23.84
2019-03-27T10:08:47.003Z,23.59
2019-03-27T10:11:13.900Z,22.79
2019-03-27T10:13:40.723Z,23.31
2019-03-27T10:25:24.021Z,21.35
2019-03-27T10:27:50.873Z,21.57
2019-03-27T10:30:18.427Z,20.56
2019-03-27T10:32:45.301Z,22.36
2019-03-27T10:35:12.222Z,22.58
2019-03-27T10:37:38.988Z,21.16
2019-03-27T10:40:05.826Z,21.77
2019-03-27T10:42:32.706Z,20.81
2019-03-27T10:44:59.674Z,21.31
2019-03-27T10:47:26.791Z,22.54
2019-03-27T10:49:53.481Z,21.26
2019-03-27T10:52:20.243Z,21.28
2019-03-27T10:54:47.025Z,22.21
2019-03-27T10:57:13.875Z,20.36
2019-03-27T10:59:40.672Z,21.34
2019-03-27T11:02:07.634Z,21.93
2019-03-27T11:04:34.598Z,21.10
2019-03-27T11:07:01.942Z,20.12
2019-03-27T11:09:29.091Z,20.11
2019-03-27T11:11:55.872Z,20.25
2019-03-27T11:14:22.597Z,20.77
2019-03-27T11:16:49.375Z,20.47
2019-03-27T11:19:16.290Z,19.86
2019-03-27T11:21:43.201Z,20.95
2019-03-27T11:24:10.563Z,20.08
2019-03-27T11:26:37.377Z,21.37
2019-03-27T11:29:04.233Z,19.71
2019-03-27T11:31:31.339Z,20.67
2019-03-27T11:33:58.132Z,20.23
2019-03-27T11:36:26.248Z,19.43
2019-03-27T11:38:52.989Z,20.10
2019-03-27T11:41:20.282Z,21.12
2019-03-27T11:43:54.611Z,21.23
2019-03-27T11:46:15.880Z,21.00
2019-03-27T11:48:42.732Z,20.65
2019-03-27T11:51:09.559Z,19.41
2019-03-27T11:53:36.503Z,18.90
2019-03-27T11:56:03.613Z,19.14
2019-03-27T11:58:30.547Z,19.21
2019-03-27T12:00:57.369Z,20.25
2019-03-27T12:03:24.185Z,19.65
2019-03-27T12:05:51.123Z,19.08
2019-03-27T12:08:17.911Z,18.73
2019-03-27T12:10:44.782Z,19.86
2019-03-27T12:13:11.554Z,21.65
2019-03-27T12:15:39.299Z,19.27
2019-03-27T12:18:06.971Z,19.61
2019-03-27T12:20:34.399Z,20.23
2019-03-27T12:23:01.143Z,20.15
2019-03-27T12:25:27.927Z,21.22
2019-03-27T12:27:54.763Z,21.66
2019-03-27T12:30:21.685Z,20.91
2019-03-27T12:32:48.455Z,19.94
2019-03-27T12:35:15.197Z,21.45
2019-03-27T12:37:41.945Z,21.00
2019-03-27T12:40:11.915Z,19.36
2019-03-27T12:42:37.402Z,19.62
2019-03-27T12:45:05.361Z,20.27
2019-03-27T12:47:36.942Z,19.87
2019-03-27T12:50:05.653Z,19.50
2019-03-27T12:52:32.439Z,19.40
2019-03-27T12:54:59.159Z,19.70
2019-03-27T12:57:25.877Z,20.25
2019-03-27T12:59:52.637Z,20.23
2019-03-27T13:02:19.339Z,20.55
2019-03-27T13:04:46.211Z,20.08
2019-03-27T13:07:13.189Z,19.95
2019-03-27T13:09:40.019Z,20.37
2019-03-27T13:12:06.781Z,19.57
2019-03-27T13:14:34.112Z,19.36
2019-03-27T13:17:00.933Z,20.05
2019-03-27T13:19:28.207Z,19.82
2019-03-27T13:21:55.047Z,20.40
2019-03-27T13:24:21.755Z,20.03
2019-03-27T13:26:48.665Z,20.43
2019-03-27T13:29:15.425Z,20.25
2019-03-27T13:31:42.201Z,21.04
2019-03-27T13:34:09.101Z,20.30
2019-03-27T13:36:37.279Z,21.46
2019-03-27T13:39:06.420Z,20.59
2019-03-27T13:41:33.331Z,20.53
2019-03-27T13:44:00.199Z,20.71
2019-03-27T13:46:26.961Z,20.32
2019-03-27T13:48:53.945Z,21.23
2019-03-27T13:51:20.939Z,21.46
2019-03-27T13:53:47.821Z,21.86
2019-03-27T13:56:14.714Z,21.40
2019-03-27T13:58:41.518Z,21.24
2019-03-27T14:01:09.059Z,22.54
2019-03-27T14:03:36.618Z,22.68
2019-03-27T14:06:03.390Z,21.53
2019-03-27T14:08:30.512Z,21.99
2019-03-27T14:10:57.400Z,22.53
2019-03-27T14:13:24.154Z,22.39
2019-03-27T14:15:50.957Z,22.78
2019-03-27T14:18:17.868Z,22.02
2019-03-27T14:20:44.717Z,21.20
2019-03-27T14:23:11.499Z,21.26
2019-03-27T14:25:38.334Z,22.87
2019-03-27T14:28:05.472Z,22.56
2019-03-27T14:30:49.187Z,23.05
2019-03-27T14:33:16.137Z,22.16
2019-03-27T14:35:43.010Z,22.67
2019-03-27T14:38:09.814Z,22.78
2019-03-27T14:40:36.590Z,22.81
2019-03-27T14:43:03.600Z,23.91
2019-03-27T14:45:30.546Z,23.93
2019-03-27T14:47:57.406Z,23.22
2019-03-27T14:50:24.353Z,23.95
2019-03-27T14:52:51.133Z,24.50
2019-03-27T14:55:17.921Z,24.50
2019-03-27T14:57:44.669Z,24.11
2019-03-27T15:00:11.666Z,24.09
2019-03-27T15:02:38.780Z,24.73
2019-03-27T15:05:06.361Z,24.45
2019-03-27T15:07:33.203Z,24.65
2019-03-27T15:10:00.151Z,25.60
2019-03-27T15:12:27.430Z,25.60
2019-03-27T15:14:54.147Z,26.72
2019-03-27T15:17:20.991Z,27.26
2019-03-27T15:19:47.980Z,27.48
2019-03-27T15:22:22.234Z,28.14
2019-03-27T15:24:43.405Z,27.35
2019-03-27T15:27:10.254Z,27.88
2019-03-27T15:29:37.075Z,27.22
2019-03-27T15:32:03.828Z,27.75
2019-03-27T15:34:30.736Z,27.24
2019-03-27T15:36:57.635Z,27.54
2019-03-27T15:39:24.825Z,27.24
2019-03-27T15:41:51.729Z,26.89
2019-03-27T15:44:18.484Z,27.19
2019-03-27T15:46:45.365Z,27.40
2019-03-27T15:49:12.152Z,27.25
2019-03-27T15:51:39.082Z,28.00
2019-03-27T15:54:05.860Z,28.58
2019-03-27T15:56:32.763Z,28.13
2019-03-27T15:58:59.503Z,27.74
2019-03-27T16:01:26.286Z,28.15
2019-03-27T16:03:53.283Z,28.31
2019-03-27T16:06:20.115Z,28.12
2019-03-27T16:08:46.934Z,28.52
2019-03-27T16:11:13.863Z,29.16
2019-03-27T16:13:40.636Z,28.66
2019-03-27T16:16:07.580Z,29.37
2019-03-27T16:18:34.482Z,29.14
2019-03-27T16:21:01.346Z,29.32
2019-03-27T16:23:32.344Z,30.51
2019-03-27T16:25:59.203Z,30.40
2019-03-27T16:28:25.935Z,30.20
2019-03-27T16:30:52.737Z,30.24
2019-03-27T16:33:19.544Z,30.48
2019-03-27T16:35:46.465Z,31.33
2019-03-27T16:38:13.340Z,31.35
2019-03-27T16:40:45.873Z,31.25
2019-03-27T16:43:12.935Z,31.71
2019-03-27T16:45:39.743Z,31.73
2019-03-27T16:48:06.720Z,31.91
2019-03-27T16:50:33.580Z,32.42
2019-03-27T16:53:03.715Z,32.57
2019-03-27T16:55:29.140Z,32.56
2019-03-27T16:57:55.926Z,32.85
2019-03-27T17:00:22.752Z,33.17
2019-03-27T17:02:49.623Z,33.15
2019-03-27T17:05:16.536Z,33.21
2019-03-27T17:07:43.342Z,33.31
2019-03-27T17:10:10.117Z,33.49
2019-03-27T17:12:36.970Z,33.76
2019-03-27T17:15:04.951Z,33.79
2019-03-27T17:17:31.817Z,33.79
2019-03-27T17:20:00.792Z,34.05
2019-03-27T17:22:27.836Z,34.19
2019-03-27T17:24:56.025Z,34.10
2019-03-27T17:27:23.301Z,34.28
2019-03-27T17:29:50.044Z,34.57
2019-03-27T17:32:16.776Z,34.94
2019-03-27T17:34:43.556Z,35.05
2019-03-27T17:37:10.265Z,35.38
2019-03-27T17:39:37.092Z,35.65
2019-03-27T17:42:03.846Z,35.79
2019-03-27T17:44:30.636Z,36.08
2019-03-27T17:46:57.379Z,36.17
2019-03-27T17:49:24.283Z,36.20
2019-03-27T17:51:52.213Z,36.53
2019-03-27T17:54:20.753Z,36.76
2019-03-27T17:56:47.906Z,36.76
2019-03-27T17:59:14.742Z,36.97
2019-03-27T18:01:41.514Z,37.51
2019-03-27T18:04:08.303Z,37.79
2019-03-27T18:06:35.188Z,37.88
2019-03-27T18:09:02.055Z,38.42
2019-03-27T18:11:28.939Z,38.77
2019-03-27T18:13:55.824Z,39.33
2019-03-27T18:16:22.686Z,39.60
2019-03-27T18:18:49.540Z,40.10
2019-03-27T18:21:16.526Z,40.26
2019-03-27T18:23:46.255Z,40.55
2019-03-27T18:26:12.287Z,40.66
2019-03-27T18:28:38.985Z,40.79
2019-03-27T18:31:05.747Z,41.00
2019-03-27T18:33:34.162Z,40.94
2019-03-27T18:36:01.196Z,41.11
2019-03-27T18:38:28.089Z,41.03
2019-03-27T18:40:55.052Z,41.23
2019-03-27T18:43:21.876Z,41.37
2019-03-27T18:45:48.646Z,41.32
2019-03-27T18:48:15.460Z,41.59
2019-03-27T18:50:45.146Z,41.81
2019-03-27T18:53:11.896Z,41.92
2019-03-27T18:55:38.686Z,41.94
2019-03-27T18:58:05.431Z,41.98
2019-03-27T19:00:32.378Z,42.18
2019-03-27T19:02:59.189Z,42.21
2019-03-27T19:05:26.110Z,42.14
2019-03-27T19:07:52.866Z,42.37
2019-03-27T19:10:19.680Z,42.43
2019-03-27T19:12:49.176Z,42.44
2019-03-27T19:15:16.215Z,42.48
2019-03-27T19:17:43.230Z,42.48
2019-03-27T19:20:09.995Z,42.74
2019-03-27T19:22:36.875Z,42.67
2019-03-27T19:25:05.890Z,42.72
2019-03-27T19:27:32.670Z,42.79
2019-03-27T19:29:59.560Z,42.99
2019-03-27T19:32:26.272Z,43.00
2019-03-27T19:34:52.998Z,43.15
2019-03-27T19:37:19.753Z,43.21
2019-03-27T19:39:46.517Z,43.35
2019-03-27T19:42:13.236Z,43.52
2019-03-27T19:44:40.155Z,43.47
2019-03-27T19:47:06.998Z,43.45
2019-03-27T19:49:33.694Z,43.62
2019-03-27T19:52:00.656Z,43.76
2019-03-27T19:54:27.737Z,43.78
2019-03-27T19:56:54.630Z,43.94
2019-03-27T19:59:21.403Z,44.13
2019-03-27T20:01:48.189Z,44.25
2019-03-27T20:04:14.932Z,44.32
2019-03-27T20:06:41.763Z,44.48
2019-03-27T20:09:08.658Z,44.57
2019-03-27T20:11:35.479Z,44.88
2019-03-27T20:14:02.391Z,44.98
2019-03-27T20:16:29.363Z,45.02
2019-03-27T20:18:56.245Z,45.25
2019-03-27T20:21:23.062Z,45.32
2019-03-27T20:23:49.801Z,45.63
2019-03-27T20:26:16.933Z,45.82
2019-03-27T20:28:43.671Z,45.88
2019-03-27T20:31:10.614Z,45.81
2019-03-27T20:33:38.309Z,45.93
2019-03-27T20:36:05.280Z,45.94
2019-03-27T20:38:32.014Z,46.00
2019-03-27T20:40:58.763Z,46.02
2019-03-27T20:43:25.484Z,45.95
2019-03-27T20:45:52.198Z,46.04
2019-03-27T20:48:21.320Z,46.04
2019-03-27T20:50:48.047Z,46.08
2019-03-27T20:53:14.803Z,46.15
2019-03-27T20:55:41.624Z,46.14
2019-03-27T20:58:08.420Z,46.18
2019-03-27T21:00:35.320Z,46.04
2019-03-27T21:03:02.468Z,45.96
2019-03-27T21:05:29.302Z,46.14
2019-03-27T21:07:56.106Z,46.12
2019-03-27T21:10:23.130Z,45.89
2019-03-27T21:12:50.032Z,45.81
2019-03-27T21:15:16.919Z,45.75
2019-03-27T21:17:43.907Z,45.60
2019-03-27T21:20:10.768Z,45.55
2019-03-27T21:22:37.626Z,45.63
2019-03-27T21:25:09.020Z,45.56
2019-03-27T21:27:34.841Z,45.62
2019-03-27T21:30:02.269Z,45.51
2019-03-27T21:32:29.018Z,45.87
2019-03-27T21:34:55.832Z,45.61
2019-03-27T21:37:22.681Z,45.64
2019-03-27T21:39:49.447Z,46.08
2019-03-27T21:42:16.274Z,45.89
2019-03-27T21:44:43.166Z,46.11
2019-03-27T21:47:09.892Z,46.55
2019-03-27T21:49:36.805Z,46.80
2019-03-27T21:52:03.560Z,46.41
2019-03-27T21:54:30.295Z,46.67
2019-03-27T21:56:57.189Z,46.83
2019-03-27T21:59:23.931Z,46.72
2019-03-27T22:01:50.666Z,46.93
2019-03-27T22:04:17.490Z,47.38
2019-03-27T22:06:44.205Z,47.52
2019-03-27T22:09:11.082Z,47.69
2019-03-27T22:11:38.270Z,47.91
2019-03-27T22:14:05.082Z,48.12
2019-03-27T22:16:32.038Z,48.19
2019-03-27T22:18:59.195Z,48.38
2019-03-27T22:21:26.223Z,48.52
2019-03-27T22:23:53.018Z,48.54
2019-03-27T22:26:19.829Z,48.60
2019-03-27T22:28:46.586Z,48.71
2019-03-27T22:31:13.380Z,48.80
2019-03-27T22:33:41.385Z,49.09
2019-03-27T22:36:08.447Z,49.24
2019-03-27T22:38:35.229Z,49.23
2019-03-27T22:41:01.995Z,49.33
2019-03-27T22:43:28.913Z,49.41
2019-03-27T22:45:55.698Z,49.26
2019-03-27T22:48:22.483Z,49.36
2019-03-27T22:50:49.261Z,49.44
2019-03-27T22:53:16.207Z,49.59
2019-03-27T22:55:49.507Z,49.77
2019-03-27T22:58:13.143Z,50.06
2019-03-27T23:00:45.045Z,50.28
2019-03-27T23:03:18.364Z,50.44
2019-03-27T23:05:42.120Z,50.59
2019-03-27T23:08:09.557Z,50.60
2019-03-27T23:10:36.851Z,50.84
2019-03-27T23:13:03.774Z,50.92
2019-03-27T23:15:30.559Z,50.89
2019-03-27T23:17:57.384Z,50.68
2019-03-27T23:20:24.233Z,50.54
2019-03-27T23:22:51.080Z,50.36
2019-03-27T23:25:17.901Z,50.19
2019-03-27T23:27:44.704Z,50.26
2019-03-27T23:30:11.598Z,50.19
2019-03-27T23:32:38.470Z,50.10
2019-03-27T23:35:11.414Z,50.20
2019-03-27T23:37:38.181Z,50.44
2019-03-27T23:40:05.502Z,50.75
2019-03-27T23:42:32.508Z,50.84
2019-03-27T23:44:59.284Z,51.07
2019-03-27T23:47:26.070Z,51.33
2019-03-27T23:49:52.891Z,51.52
2019-03-27T23:52:19.901Z,51.76
2019-03-27T23:54:46.714Z,52.33
2019-03-27T23:57:13.654Z,52.74
2019-03-27T23:59:40.463Z,53.02
